Time;durP1;ratioP1;P1;durP2;ratioP2;P2;SDS_P1;SDS_P2;PMS_P1;PMS_P2;Temp;Humidity;BMP_temperature;BMP_pressure;BME280_temperature;BME280_humidity;BME280_pressure;Samples;Min_cycle;Max_cycle;Signal;HPM_P1;HPM_P2
2022/12/13 00:01:16;;;;;;;21.08;10.05;;;;;;;;;;4999088;28;20143;-75
2022/12/13 00:03:42;;;;;;;24.00;9.35;;;;;;;;;;4996401;28;20105;-75
2022/12/13 00:06:09;;;;;;;26.88;11.35;;;;;;;;;;4995084;28;20042;-74
2022/12/13 00:08:34;;;;;;;23.48;11.68;;;;;;;;;;4994426;28;20053;-74
2022/12/13 00:11:01;;;;;;;28.00;11.32;;;;;;;;;;4997958;28;20109;-74
2022/12/13 00:13:27;;;;;;;26.85;10.50;;;;;;;;;;4980227;28;20438;-74
2022/12/13 00:15:57;;;;;;;22.20;10.07;;;;;;;;;;4999213;28;20038;-74
2022/12/13 00:18:23;;;;;;;32.88;11.55;;;;;;;;;;4987280;28;20541;-74
2022/12/13 00:20:48;;;;;;;24.77;10.93;;;;;;;;;;5002213;28;20117;-74
2022/12/13 00:23:13;;;;;;;29.67;11.27;;;;;;;;;;4999134;28;20509;-74
2022/12/13 00:25:39;;;;;;;29.02;10.40;;;;;;;;;;5002744;28;20098;-75
2022/12/13 00:28:04;;;;;;;24.67;9.63;;;;;;;;;;5003575;28;20034;-74
2022/12/13 00:30:32;;;;;;;28.70;11.93;;;;;;;;;;5003222;28;20125;-74
2022/12/13 00:32:58;;;;;;;23.88;10.63;;;;;;;;;;4994948;28;20046;-74
2022/12/13 00:35:23;;;;;;;23.95;10.20;;;;;;;;;;5000799;28;20091;-74
2022/12/13 00:37:48;;;;;;;26.25;11.10;;;;;;;;;;5006569;28;20034;-74
2022/12/13 00:40:14;;;;;;;24.05;9.90;;;;;;;;;;5006660;28;20033;-74
2022/12/13 00:42:39;;;;;;;27.10;9.55;;;;;;;;;;5003903;28;20359;-74
2022/12/13 00:45:05;;;;;;;23.85;9.57;;;;;;;;;;5005433;28;20046;-74
2022/12/13 00:47:30;;;;;;;26.83;11.48;;;;;;;;;;4996980;28;20441;-74
2022/12/13 00:49:56;;;;;;;31.17;11.85;;;;;;;;;;5008641;28;20184;-74
2022/12/13 00:52:21;;;;;;;28.58;12.80;;;;;;;;;;5004047;28;20053;-74
2022/12/13 00:54:47;;;;;;;29.48;10.27;;;;;;;;;;5002631;28;20045;-73
2022/12/13 00:57:12;;;;;;;29.40;10.73;;;;;;;;;;5006560;28;20406;-74
2022/12/13 00:59:37;;;;;;;31.73;12.13;;;;;;;;;;4992101;28;20230;-74
2022/12/13 01:02:03;;;;;;;27.50;12.05;;;;;;;;;;4997169;28;20109;-74
2022/12/13 01:04:28;;;;;;;24.98;10.27;;;;;;;;;;5002771;28;20030;-74
2022/12/13 01:06:54;;;;;;;29.00;11.55;;;;;;;;;;4997383;28;20057;-74
2022/12/13 01:09:26;;;;;;;23.75;10.57;;;;;;;;;;5003111;28;20091;-74
2022/12/13 01:11:56;;;;;;;21.73;11.30;;;;;;;;;;5000387;28;20034;-74
2022/12/13 01:14:21;;;;;;;25.42;11.15;;;;;;;;;;5012076;28;20397;-75
2022/12/13 01:16:47;;;;;;;27.20;12.15;;;;;;;;;;5003435;28;20034;-74
2022/12/13 01:19:12;;;;;;;29.48;11.77;;;;;;;;;;5011272;28;20034;-75
2022/12/13 01:21:37;;;;;;;26.40;12.20;;;;;;;;;;5005570;28;20122;-74
2022/12/13 01:24:04;;;;;;;31.50;12.93;;;;;;;;;;5013130;28;20034;-74
2022/12/13 01:26:30;;;;;;;33.17;13.35;;;;;;;;;;4989328;28;20044;-74
2022/12/13 01:28:55;;;;;;;24.23;11.50;;;;;;;;;;4997428;28;20454;-74
2022/12/13 01:31:20;;;;;;;25.70;11.18;;;;;;;;;;5005768;28;20473;-75
2022/12/13 01:33:47;;;;;;;31.17;12.60;;;;;;;;;;5006608;28;20489;-74
2022/12/13 01:36:15;;;;;;;31.80;13.50;;;;;;;;;;5007988;28;20042;-74
2022/12/13 01:38:41;;;;;;;26.90;12.07;;;;;;;;;;5006780;28;20029;-74
2022/12/13 01:41:07;;;;;;;26.27;11.85;;;;;;;;;;5010666;28;20107;-74
2022/12/13 01:43:35;;;;;;;29.80;13.30;;;;;;;;;;5003579;28;20046;-74
2022/12/13 01:46:00;;;;;;;30.10;13.15;;;;;;;;;;4998487;28;20494;-74
2022/12/13 01:48:28;;;;;;;24.70;12.40;;;;;;;;;;5008220;28;20053;-74
2022/12/13 01:50:58;;;;;;;27.48;13.82;;;;;;;;;;5009315;28;20100;-74
2022/12/13 01:53:26;;;;;;;37.90;13.43;;;;;;;;;;4996495;28;20141;-74
2022/12/13 01:55:54;;;;;;;27.90;12.73;;;;;;;;;;5004347;28;20491;-74
2022/12/13 01:58:19;;;;;;;26.15;11.40;;;;;;;;;;5005240;28;20050;-74
2022/12/13 02:00:46;;;;;;;30.83;11.85;;;;;;;;;;5011787;28;20143;-74
2022/12/13 02:03:11;;;;;;;30.20;11.18;;;;;;;;;;4980789;28;20154;-74
2022/12/13 02:05:41;;;;;;;23.05;10.75;;;;;;;;;;4999533;28;20031;-74
2022/12/13 02:08:07;;;;;;;29.92;11.70;;;;;;;;;;4992494;28;20022;-74
2022/12/13 02:10:33;;;;;;;29.30;12.55;;;;;;;;;;5008354;28;20043;-74
2022/12/13 02:12:58;;;;;;;35.85;12.32;;;;;;;;;;5008253;28;20030;-74
2022/12/13 02:15:27;;;;;;;28.05;12.68;;;;;;;;;;5005490;28;20030;-74
2022/12/13 02:17:59;;;;;;;30.02;12.20;;;;;;;;;;5012386;28;20034;-74
2022/12/13 02:20:36;;;;;;;33.22;12.70;;;;;;;;;;5005599;28;20045;-74
2022/12/13 02:23:10;;;;;;;27.38;11.02;;;;;;;;;;4998029;28;20050;-74
2022/12/13 02:25:35;;;;;;;;;;;;;;;;;;5002844;28;20109;-74
2022/12/13 02:28:26;;;;;;;31.05;12.02;;;;;;;;;;4994811;28;20013;-74
2022/12/13 02:31:20;;;;;;;22.42;11.32;;;;;;;;;;5011173;28;20418;-74
2022/12/13 02:33:51;;;;;;;28.38;12.00;;;;;;;;;;4983611;28;20490;-74
2022/12/13 02:36:26;;;;;;;30.50;12.95;;;;;;;;;;5000394;28;20042;-74
2022/12/13 02:38:58;;;;;;;28.05;13.32;;;;;;;;;;5012566;28;20038;-74
2022/12/13 02:41:33;;;;;;;28.60;13.07;;;;;;;;;;5009359;28;20049;-74
2022/12/13 02:44:05;;;;;;;24.98;12.65;;;;;;;;;;4994475;28;20037;-74
2022/12/13 02:46:35;;;;;;;28.13;12.70;;;;;;;;;;4993237;28;20061;-74
2022/12/13 02:49:01;;;;;;;26.25;11.75;;;;;;;;;;5025543;28;20056;-74
2022/12/13 02:51:26;;;;;;;29.83;12.35;;;;;;;;;;5000509;28;20468;-74
2022/12/13 02:53:52;;;;;;;34.47;12.73;;;;;;;;;;4997824;28;20038;-74
2022/12/13 02:56:17;;;;;;;28.85;12.77;;;;;;;;;;5002515;28;20124;-74
2022/12/13 02:58:47;;;;;;;29.20;13.13;;;;;;;;;;4978932;28;20118;-74
2022/12/13 03:01:26;;;;;;;33.83;13.25;;;;;;;;;;4988672;28;20062;-74
2022/12/13 03:04:05;;;;;;;29.23;11.48;;;;;;;;;;5010633;28;20117;-74
2022/12/13 03:06:53;;;;;;;29.23;11.82;;;;;;;;;;4989825;28;20393;-74
2022/12/13 03:09:34;;;;;;;26.80;11.30;;;;;;;;;;5007882;28;20112;-74
2022/12/13 03:15:20;;;;;;;30.35;12.15;;;;;;;;;;4989489;28;20547;-75
2022/12/13 03:18:01;;;;;;;25.83;11.90;;;;;;;;;;4977217;28;20041;-74
2022/12/13 03:20:28;;;;;;;23.92;12.73;;;;;;;;;;5002147;28;20489;-74
2022/12/13 03:22:54;;;;;;;26.15;12.07;;;;;;;;;;4983665;28;20046;-74
2022/12/13 03:25:22;;;;;;;33.65;12.88;;;;;;;;;;5003180;28;20034;-74
2022/12/13 03:27:47;;;;;;;27.98;13.68;;;;;;;;;;4987097;28;20026;-74
2022/12/13 03:30:13;;;;;;;29.27;12.32;;;;;;;;;;4989266;28;20034;-74
2022/12/13 03:32:38;;;;;;;29.40;13.13;;;;;;;;;;4999989;28;20647;-74
2022/12/13 03:35:04;;;;;;;23.30;11.40;;;;;;;;;;4993552;28;20038;-74
2022/12/13 03:37:29;;;;;;;26.27;12.60;;;;;;;;;;4997719;28;20467;-74
2022/12/13 03:39:55;;;;;;;28.05;12.88;;;;;;;;;;5009146;28;20034;-75
2022/12/13 03:42:20;;;;;;;29.08;12.73;;;;;;;;;;5009457;28;20116;-75
2022/12/13 03:44:46;;;;;;;28.27;11.82;;;;;;;;;;5000324;28;20045;-74
2022/12/13 03:47:11;;;;;;;27.65;11.73;;;;;;;;;;5006550;28;20026;-74
2022/12/13 03:49:37;;;;;;;27.95;12.45;;;;;;;;;;5010510;28;20522;-75
2022/12/13 03:52:02;;;;;;;25.90;11.93;;;;;;;;;;4995916;28;20485;-74
2022/12/13 03:54:27;;;;;;;27.95;11.80;;;;;;;;;;4990268;28;20041;-75
2022/12/13 03:56:53;;;;;;;28.73;11.40;;;;;;;;;;5007970;28;20437;-74
2022/12/13 03:59:18;;;;;;;23.08;11.75;;;;;;;;;;5006441;28;20052;-74
2022/12/13 04:01:43;;;;;;;31.05;11.57;;;;;;;;;;4984191;28;20046;-74
2022/12/13 04:04:09;;;;;;;32.30;12.07;;;;;;;;;;4999195;28;20080;-74
2022/12/13 04:06:34;;;;;;;32.72;13.15;;;;;;;;;;4995125;28;20490;-74
2022/12/13 04:09:00;;;;;;;24.30;12.02;;;;;;;;;;4994222;28;20034;-74
2022/12/13 04:14:10;;;;;;;27.67;11.40;;;;;;;;;;5005666;28;20053;-74
2022/12/13 04:16:36;;;;;;;23.92;11.82;;;;;;;;;;5004967;28;20034;-74
2022/12/13 04:19:01;;;;;;;27.88;12.15;;;;;;;;;;5013636;28;20057;-74
2022/12/13 04:21:26;;;;;;;32.25;13.75;;;;;;;;;;5012248;28;20117;-74
2022/12/13 04:23:52;;;;;;;32.17;13.57;;;;;;;;;;5011370;28;20085;-74
2022/12/13 04:26:18;;;;;;;25.25;12.43;;;;;;;;;;5005716;28;20046;-74
2022/12/13 04:28:43;;;;;;;34.55;12.68;;;;;;;;;;5006589;28;20517;-74
2022/12/13 04:31:09;;;;;;;28.70;12.90;;;;;;;;;;5010155;28;20371;-74
2022/12/13 04:33:34;;;;;;;35.55;13.43;;;;;;;;;;5004711;28;20046;-74
2022/12/13 04:35:59;;;;;;;26.45;12.15;;;;;;;;;;5005356;28;20018;-74
2022/12/13 04:38:25;;;;;;;35.05;12.52;;;;;;;;;;4998830;28;20042;-74
2022/12/13 04:40:50;;;;;;;29.90;12.65;;;;;;;;;;4998051;28;20521;-74
2022/12/13 04:43:16;;;;;;;32.00;13.02;;;;;;;;;;5001312;28;20023;-74
2022/12/13 04:45:41;;;;;;;28.02;11.68;;;;;;;;;;5002327;28;20042;-74
2022/12/13 04:48:07;;;;;;;28.27;12.90;;;;;;;;;;5002085;28;20482;-74
2022/12/13 04:50:32;;;;;;;28.00;13.10;;;;;;;;;;5008330;28;20076;-74
2022/12/13 04:52:58;;;;;;;29.23;12.10;;;;;;;;;;5007223;28;20444;-74
2022/12/13 04:55:24;;;;;;;28.60;11.23;;;;;;;;;;5011528;28;20090;-74
2022/12/13 04:57:49;;;;;;;36.45;12.50;;;;;;;;;;5012971;28;20026;-74
2022/12/13 05:00:15;;;;;;;29.27;11.82;;;;;;;;;;5008760;28;20046;-74
2022/12/13 05:02:40;;;;;;;26.00;11.98;;;;;;;;;;5006928;28;20067;-74
2022/12/13 05:05:08;;;;;;;34.42;11.95;;;;;;;;;;5005309;28;20061;-74
2022/12/13 05:07:33;;;;;;;27.52;12.50;;;;;;;;;;4979929;28;20121;-74
2022/12/13 05:09:59;;;;;;;27.27;11.23;;;;;;;;;;4990568;28;20124;-74
2022/12/13 05:12:24;;;;;;;24.67;10.68;;;;;;;;;;5001457;28;20041;-74
2022/12/13 05:14:50;;;;;;;27.98;12.38;;;;;;;;;;5000987;28;20097;-74
2022/12/13 05:17:16;;;;;;;30.05;11.20;;;;;;;;;;5010676;28;20048;-74
2022/12/13 05:19:41;;;;;;;26.65;12.00;;;;;;;;;;5003578;28;20026;-74
2022/12/13 05:22:14;;;;;;;26.58;12.48;;;;;;;;;;5005935;28;20038;-74
2022/12/13 05:24:41;;;;;;;25.02;12.52;;;;;;;;;;4998156;28;20526;-74
2022/12/13 05:27:06;;;;;;;33.85;12.23;;;;;;;;;;4999370;28;20038;-74
2022/12/13 05:29:32;;;;;;;33.30;11.48;;;;;;;;;;5000348;28;20038;-74
2022/12/13 05:31:57;;;;;;;25.27;11.77;;;;;;;;;;4997573;28;20038;-74
2022/12/13 05:34:22;;;;;;;29.98;10.55;;;;;;;;;;5002609;28;20034;-74
2022/12/13 05:36:48;;;;;;;23.08;10.38;;;;;;;;;;5012781;28;20478;-74
2022/12/13 05:39:13;;;;;;;26.05;11.02;;;;;;;;;;5010509;28;20058;-74
2022/12/13 05:41:38;;;;;;;25.83;9.48;;;;;;;;;;5011037;28;20038;-74
2022/12/13 05:44:04;;;;;;;31.63;11.00;;;;;;;;;;5002410;28;20046;-74
2022/12/13 05:46:29;;;;;;;26.90;11.27;;;;;;;;;;5000402;28;20072;-74
2022/12/13 05:48:55;;;;;;;22.05;10.07;;;;;;;;;;4998563;28;20062;-74
2022/12/13 05:51:20;;;;;;;29.25;10.02;;;;;;;;;;5005713;28;20042;-75
2022/12/13 05:53:46;;;;;;;26.25;11.32;;;;;;;;;;5005582;28;20034;-74
2022/12/13 05:56:12;;;;;;;23.95;10.30;;;;;;;;;;5010382;28;20034;-74
2022/12/13 05:58:38;;;;;;;28.13;10.63;;;;;;;;;;5006274;28;20040;-74
2022/12/13 06:01:11;;;;;;;36.17;10.30;;;;;;;;;;4995090;28;20061;-74
2022/12/13 06:03:37;;;;;;;38.38;11.30;;;;;;;;;;4993606;28;20061;-74
2022/12/13 06:06:03;;;;;;;27.02;11.85;;;;;;;;;;4983358;28;20437;-74
2022/12/13 06:08:29;;;;;;;32.17;11.60;;;;;;;;;;4979850;28;20038;-74
2022/12/13 06:10:59;;;;;;;29.15;10.68;;;;;;;;;;5004434;28;20029;-73
2022/12/13 06:13:24;;;;;;;29.63;10.85;;;;;;;;;;4992420;28;20057;-73
2022/12/13 06:15:51;;;;;;;33.15;10.10;;;;;;;;;;5003590;28;20038;-74
2022/12/13 06:18:16;;;;;;;24.08;10.60;;;;;;;;;;4986915;28;20030;-73
2022/12/13 06:20:42;;;;;;;24.13;11.82;;;;;;;;;;5001169;28;20121;-73
2022/12/13 06:23:07;;;;;;;34.80;11.45;;;;;;;;;;5000756;28;20060;-73
2022/12/13 06:25:33;;;;;;;26.58;10.98;;;;;;;;;;5006979;28;20038;-75
2022/12/13 06:27:58;;;;;;;30.10;11.43;;;;;;;;;;5000769;28;20037;-72
2022/12/13 06:30:24;;;;;;;30.60;13.20;;;;;;;;;;5004090;28;20486;-73
2022/12/13 06:32:49;;;;;;;37.40;11.40;;;;;;;;;;5010390;28;20058;-73
2022/12/13 06:35:15;;;;;;;25.08;10.93;;;;;;;;;;5007012;28;20052;-73
2022/12/13 06:37:40;;;;;;;25.85;10.45;;;;;;;;;;4994803;28;20104;-73
2022/12/13 06:40:06;;;;;;;27.48;11.40;;;;;;;;;;5001497;28;20384;-74
2022/12/13 06:42:32;;;;;;;27.98;10.10;;;;;;;;;;5004685;28;20088;-74
2022/12/13 06:44:57;;;;;;;31.77;11.00;;;;;;;;;;4989205;28;20382;-75
2022/12/13 06:47:24;;;;;;;21.75;10.80;;;;;;;;;;5000152;28;20489;-74
2022/12/13 06:49:49;;;;;;;28.30;10.00;;;;;;;;;;4997525;28;20453;-74
2022/12/13 06:52:15;;;;;;;32.08;11.55;;;;;;;;;;4997888;28;20050;-73
2022/12/13 06:54:41;;;;;;;32.60;11.65;;;;;;;;;;4998711;28;20030;-73
2022/12/13 06:57:07;;;;;;;29.10;9.73;;;;;;;;;;4978970;28;20137;-74
2022/12/13 06:59:32;;;;;;;38.15;10.88;;;;;;;;;;5006843;28;20162;-74
2022/12/13 07:01:58;;;;;;;37.58;10.95;;;;;;;;;;5006969;28;20109;-74
2022/12/13 07:04:23;;;;;;;26.38;10.52;;;;;;;;;;4994644;28;20056;-74
2022/12/13 07:06:49;;;;;;;28.50;10.55;;;;;;;;;;5005235;28;20794;-74
2022/12/13 07:09:14;;;;;;;27.10;10.02;;;;;;;;;;5009395;28;20046;-74
2022/12/13 07:11:39;;;;;;;28.58;12.05;;;;;;;;;;4989174;28;20046;-74
2022/12/13 07:14:05;;;;;;;36.22;12.23;;;;;;;;;;5000572;28;20033;-74
2022/12/13 07:16:30;;;;;;;37.35;10.90;;;;;;;;;;5003991;28;20486;-74
2022/12/13 07:18:59;;;;;;;20.20;10.25;;;;;;;;;;5006935;28;20042;-74
2022/12/13 07:21:25;;;;;;;31.00;10.63;;;;;;;;;;4991708;28;20485;-73
2022/12/13 07:23:51;;;;;;;32.97;11.95;;;;;;;;;;4992113;28;20029;-74
2022/12/13 07:26:16;;;;;;;26.55;12.45;;;;;;;;;;4997639;28;20396;-74
2022/12/13 07:28:42;;;;;;;33.63;11.63;;;;;;;;;;5010353;28;20041;-73
2022/12/13 07:31:09;;;;;;;29.88;10.55;;;;;;;;;;5026689;28;20473;-73
2022/12/13 07:33:35;;;;;;;38.00;11.20;;;;;;;;;;5003808;28;20040;-73
2022/12/13 07:36:02;;;;;;;38.13;11.70;;;;;;;;;;5013488;28;20084;-73
2022/12/13 07:38:28;;;;;;;29.10;10.93;;;;;;;;;;5020055;28;20067;-73
2022/12/13 07:40:55;;;;;;;34.70;11.30;;;;;;;;;;5016683;28;20464;-73
2022/12/13 07:43:21;;;;;;;39.00;10.20;;;;;;;;;;4994148;28;20076;-73
2022/12/13 07:45:46;;;;;;;31.17;10.80;;;;;;;;;;5021261;28;20090;-73
2022/12/13 07:48:11;;;;;;;30.83;12.48;;;;;;;;;;5023629;28;20091;-73
2022/12/13 07:50:37;;;;;;;33.08;11.05;;;;;;;;;;5014780;28;20038;-74
2022/12/13 07:53:05;;;;;;;29.40;11.82;;;;;;;;;;5028529;28;20037;-73
2022/12/13 07:55:32;;;;;;;33.78;11.40;;;;;;;;;;5025999;28;20042;-73
2022/12/13 07:58:11;;;;;;;26.02;9.90;;;;;;;;;;5047589;28;20033;-73
2022/12/13 08:00:37;;;;;;;24.80;10.25;;;;;;;;;;5030066;28;20043;-73
2022/12/13 08:03:04;;;;;;;37.22;10.75;;;;;;;;;;5004540;28;20389;-73
2022/12/13 08:05:29;;;;;;;37.08;11.77;;;;;;;;;;5021392;28;20030;-73
2022/12/13 08:07:55;;;;;;;29.02;11.85;;;;;;;;;;5020294;28;20401;-73
2022/12/13 08:10:20;;;;;;;32.13;12.73;;;;;;;;;;5028699;28;20041;-73
2022/12/13 08:12:46;;;;;;;32.55;10.88;;;;;;;;;;5026161;28;20032;-73
2022/12/13 08:15:11;;;;;;;32.45;12.68;;;;;;;;;;5010105;28;20044;-73
2022/12/13 08:17:37;;;;;;;31.58;11.68;;;;;;;;;;4845472;28;20590;-75
2022/12/13 08:20:03;;;;;;;28.77;10.77;;;;;;;;;;4999266;28;20038;-73
2022/12/13 08:22:29;;;;;;;30.63;11.70;;;;;;;;;;5016751;28;20053;-73
2022/12/13 08:24:54;;;;;;;24.58;9.85;;;;;;;;;;5016454;28;20049;-74
2022/12/13 08:27:20;;;;;;;33.13;13.38;;;;;;;;;;5024487;28;20038;-73
2022/12/13 08:29:45;;;;;;;31.08;11.02;;;;;;;;;;4851362;28;20054;-74
2022/12/13 08:32:11;;;;;;;18.90;9.98;;;;;;;;;;5024688;28;20038;-73
2022/12/13 08:34:37;;;;;;;27.20;11.27;;;;;;;;;;5024937;28;20053;-73
2022/12/13 08:37:02;;;;;;;33.72;11.95;;;;;;;;;;5018619;28;20112;-74
2022/12/13 08:39:28;;;;;;;40.38;11.95;;;;;;;;;;5016168;28;20496;-73
2022/12/13 08:41:53;;;;;;;41.47;11.73;;;;;;;;;;4988927;28;20458;-74
2022/12/13 08:44:19;;;;;;;29.02;11.23;;;;;;;;;;5021630;28;20576;-73
2022/12/13 08:46:44;;;;;;;28.63;10.73;;;;;;;;;;5021719;28;20041;-74
2022/12/13 08:49:10;;;;;;;31.17;12.05;;;;;;;;;;5021203;28;20147;-74
2022/12/13 08:51:35;;;;;;;30.23;11.73;;;;;;;;;;5013322;28;20065;-73
2022/12/13 08:54:01;;;;;;;30.58;11.93;;;;;;;;;;5026866;28;20073;-73
2022/12/13 08:56:26;;;;;;;36.13;13.65;;;;;;;;;;4998416;28;20358;-73
2022/12/13 08:58:52;;;;;;;31.27;12.35;;;;;;;;;;5026461;28;20064;-73
2022/12/13 09:01:18;;;;;;;30.67;12.00;;;;;;;;;;5012951;28;20065;-73
2022/12/13 09:03:43;;;;;;;44.63;13.45;;;;;;;;;;5017767;28;20412;-74
2022/12/13 09:06:11;;;;;;;35.95;12.93;;;;;;;;;;5015043;28;20617;-73
2022/12/13 09:08:37;;;;;;;39.17;12.95;;;;;;;;;;5003322;28;20037;-73
2022/12/13 09:11:04;;;;;;;34.40;12.00;;;;;;;;;;5023461;28;20079;-73
2022/12/13 09:13:34;;;;;;;44.72;13.98;;;;;;;;;;5023936;28;20405;-73
2022/12/13 09:16:13;;;;;;;37.88;13.70;;;;;;;;;;5013843;28;20061;-73
2022/12/13 09:18:39;;;;;;;37.83;14.27;;;;;;;;;;5025326;28;20034;-73
2022/12/13 09:21:09;;;;;;;31.13;12.65;;;;;;;;;;5006120;28;20759;-73
2022/12/13 09:23:35;;;;;;;33.15;11.90;;;;;;;;;;5024411;28;20034;-74
2022/12/13 09:26:00;;;;;;;38.40;13.02;;;;;;;;;;5036149;28;20044;-73
2022/12/13 09:28:28;;;;;;;29.73;11.63;;;;;;;;;;5039680;28;20389;-74
2022/12/13 09:30:54;;;;;;;32.00;11.25;;;;;;;;;;5025276;28;20525;-74
2022/12/13 09:33:19;;;;;;;32.13;13.02;;;;;;;;;;5008102;28;20033;-73
2022/12/13 09:35:45;;;;;;;42.00;12.63;;;;;;;;;;5005867;28;20393;-74
2022/12/13 09:38:11;;;;;;;35.80;12.13;;;;;;;;;;5014201;28;20052;-74
2022/12/13 09:40:38;;;;;;;32.85;13.10;;;;;;;;;;5022783;28;20061;-74
2022/12/13 09:43:04;;;;;;;38.75;11.75;;;;;;;;;;5027686;28;20038;-75
2022/12/13 09:45:29;;;;;;;36.72;13.60;;;;;;;;;;5022808;28;20489;-74
2022/12/13 09:47:56;;;;;;;38.10;12.77;;;;;;;;;;5010991;28;20058;-74
2022/12/13 09:50:28;;;;;;;30.10;11.25;;;;;;;;;;5025304;28;20053;-73
2022/12/13 09:52:55;;;;;;;36.90;12.50;;;;;;;;;;5008508;28;20025;-74
2022/12/13 09:55:47;;;;;;;29.15;12.55;;;;;;;;;;5020673;28;20037;-74
2022/12/13 09:58:29;;;;;;;33.47;12.23;;;;;;;;;;5018276;28;20092;-74
2022/12/13 10:00:55;;;;;;;34.80;13.15;;;;;;;;;;5025042;28;20056;-74
2022/12/13 10:03:23;;;;;;;32.70;11.65;;;;;;;;;;5001222;28;20045;-73
2022/12/13 10:06:12;;;;;;;32.13;13.10;;;;;;;;;;4997319;28;20056;-73
2022/12/13 10:08:41;;;;;;;28.98;13.70;;;;;;;;;;5021081;28;20482;-73
2022/12/13 10:11:11;;;;;;;32.35;12.02;;;;;;;;;;5022699;28;20393;-73
2022/12/13 10:13:43;;;;;;;29.58;12.23;;;;;;;;;;5018400;28;20512;-74
2022/12/13 10:16:13;;;;;;;26.55;10.68;;;;;;;;;;5005883;28;20045;-73
2022/12/13 10:18:40;;;;;;;34.40;11.93;;;;;;;;;;4997809;28;20087;-73
2022/12/13 10:21:31;;;;;;;30.33;11.77;;;;;;;;;;4983543;28;20441;-74
2022/12/13 10:24:10;;;;;;;33.85;11.85;;;;;;;;;;5018016;28;20061;-74
2022/12/13 10:26:36;;;;;;;27.00;11.45;;;;;;;;;;5038061;28;20034;-75
2022/12/13 10:29:03;;;;;;;27.10;11.43;;;;;;;;;;4998900;28;20076;-74
2022/12/13 10:31:40;;;;;;;24.50;10.85;;;;;;;;;;5026820;28;20029;-74
2022/12/13 10:34:31;;;;;;;31.80;12.23;;;;;;;;;;5018410;28;20052;-74
2022/12/13 10:36:57;;;;;;;27.48;11.18;;;;;;;;;;5027781;28;20033;-74
2022/12/13 10:39:37;;;;;;;25.65;11.60;;;;;;;;;;5022883;28;20535;-74
2022/12/13 10:42:14;;;;;;;26.10;10.38;;;;;;;;;;5023348;28;20039;-75
2022/12/13 10:44:39;;;;;;;26.63;11.27;;;;;;;;;;5023299;28;20065;-74
2022/12/13 10:47:17;;;;;;;23.65;11.50;;;;;;;;;;5024613;28;20037;-74
2022/12/13 10:49:56;;;;;;;22.25;10.65;;;;;;;;;;5026372;28;20057;-74
2022/12/13 10:52:47;;;;;;;26.42;10.68;;;;;;;;;;5023370;28;20354;-75
2022/12/13 10:55:27;;;;;;;24.30;11.07;;;;;;;;;;5012053;28;20064;-74
2022/12/13 10:57:56;;;;;;;25.75;10.35;;;;;;;;;;5018743;28;20026;-75
2022/12/13 11:00:36;;;;;;;22.65;10.75;;;;;;;;;;5032147;28;20501;-75
2022/12/13 11:03:02;;;;;;;20.95;10.32;;;;;;;;;;5033807;28;20064;-75
2022/12/13 11:05:32;;;;;;;23.23;11.40;;;;;;;;;;5004506;28;20386;-75
2022/12/13 11:08:21;;;;;;;18.67;10.45;;;;;;;;;;5020860;28;20218;-75
2022/12/13 11:10:58;;;;;;;26.23;11.18;;;;;;;;;;5024688;28;20034;-74
2022/12/13 11:13:32;;;;;;;23.50;11.00;;;;;;;;;;5006735;28;20018;-74
2022/12/13 11:15:57;;;;;;;25.55;10.85;;;;;;;;;;5017125;28;20128;-74
2022/12/13 11:18:24;;;;;;;21.20;10.45;;;;;;;;;;5013395;28;20636;-74
2022/12/13 11:20:59;;;;;;;27.52;11.57;;;;;;;;;;5027288;28;20120;-74
2022/12/13 11:23:26;;;;;;;21.50;9.82;;;;;;;;;;5036043;28;20073;-74
2022/12/13 11:25:58;;;;;;;19.83;9.60;;;;;;;;;;5026028;28;20045;-74
2022/12/13 11:28:27;;;;;;;19.80;10.18;;;;;;;;;;5029306;28;20108;-75
2022/12/13 11:31:06;;;;;;;20.27;8.98;;;;;;;;;;5027122;28;20087;-74
2022/12/13 11:33:37;;;;;;;18.20;8.52;;;;;;;;;;5015998;28;20147;-75
2022/12/13 11:36:33;;;;;;;17.10;8.25;;;;;;;;;;5013836;28;20041;-75
2022/12/13 11:39:07;;;;;;;15.93;8.38;;;;;;;;;;5005472;28;20033;-75
2022/12/13 11:41:54;;;;;;;15.60;8.38;;;;;;;;;;5021201;28;20034;-75
2022/12/13 11:44:28;;;;;;;17.45;9.10;;;;;;;;;;5019403;28;20042;-75
2022/12/13 11:46:57;;;;;;;17.42;8.68;;;;;;;;;;5013252;28;20523;-75
2022/12/13 11:49:52;;;;;;;16.80;9.68;;;;;;;;;;5033476;28;20053;-75
2022/12/13 11:52:29;;;;;;;15.73;7.93;;;;;;;;;;5001585;28;20052;-75
2022/12/13 11:55:04;;;;;;;16.08;8.48;;;;;;;;;;4988856;28;20133;-75
2022/12/13 11:58:12;;;;;;;17.90;8.50;;;;;;;;;;5040798;28;20045;-75
2022/12/13 12:00:48;;;;;;;24.10;7.93;;;;;;;;;;4981753;28;20104;-75
2022/12/13 12:03:19;;;;;;;18.65;8.20;;;;;;;;;;5021824;28;20065;-75
2022/12/13 12:05:48;;;;;;;20.35;9.00;;;;;;;;;;5015923;28;20045;-74
2022/12/13 12:08:38;;;;;;;16.67;7.85;;;;;;;;;;5012785;28;20034;-75
2022/12/13 12:11:11;;;;;;;17.73;8.05;;;;;;;;;;5005406;28;20093;-75
2022/12/13 12:13:46;;;;;;;20.23;9.07;;;;;;;;;;4998370;28;20037;-75
2022/12/13 12:16:42;;;;;;;16.38;8.70;;;;;;;;;;5010046;28;20037;-75
2022/12/13 12:19:38;;;;;;;17.30;7.60;;;;;;;;;;5008246;28;20076;-75
2022/12/13 12:22:12;;;;;;;13.40;7.55;;;;;;;;;;5025463;28;20069;-75
2022/12/13 12:24:38;;;;;;;16.83;8.98;;;;;;;;;;5016335;28;20049;-75
2022/12/13 12:27:12;;;;;;;16.27;7.80;;;;;;;;;;5011856;28;20037;-75
2022/12/13 12:29:49;;;;;;;18.85;8.65;;;;;;;;;;5013562;28;20089;-75
2022/12/13 12:32:31;;;;;;;16.85;8.43;;;;;;;;;;5026606;28;20041;-75
2022/12/13 12:35:16;;;;;;;14.95;6.95;;;;;;;;;;5019255;28;20041;-75
2022/12/13 12:38:12;;;;;;;16.42;7.82;;;;;;;;;;5042913;28;20556;-75
2022/12/13 12:40:50;;;;;;;13.55;6.53;;;;;;;;;;5025841;28;20116;-75
2022/12/13 12:43:42;;;;;;;14.73;7.72;;;;;;;;;;5012492;28;20048;-75
2022/12/13 12:46:41;;;;;;;15.80;8.90;;;;;;;;;;4996119;28;20054;-75
2022/12/13 12:49:07;;;;;;;17.60;7.32;;;;;;;;;;5028408;28;20050;-75
2022/12/13 12:51:59;;;;;;;15.70;7.28;;;;;;;;;;5027016;28;20043;-75
2022/12/13 12:54:46;;;;;;;20.73;7.57;;;;;;;;;;5012071;28;20096;-75
2022/12/13 12:57:22;;;;;;;16.33;8.23;;;;;;;;;;5024494;28;20053;-75
2022/12/13 13:00:03;;;;;;;14.88;8.35;;;;;;;;;;5043420;28;20104;-75
2022/12/13 13:02:39;;;;;;;17.45;7.40;;;;;;;;;;5027914;28;20535;-75
2022/12/13 13:05:19;;;;;;;15.13;7.13;;;;;;;;;;5025035;28;20044;-76
2022/12/13 13:07:52;;;;;;;13.65;6.97;;;;;;;;;;5028369;28;20045;-75
2022/12/13 13:10:18;;;;;;;14.95;7.60;;;;;;;;;;5012953;28;20056;-74
2022/12/13 13:12:44;;;;;;;16.92;8.52;;;;;;;;;;5011948;28;20385;-75
2022/12/13 13:15:38;;;;;;;18.30;8.23;;;;;;;;;;5025581;28;20037;-76
2022/12/13 13:18:05;;;;;;;;;;;;;;;;;;5017283;28;20060;-75
2022/12/13 13:20:31;;;;;;;15.88;8.27;;;;;;;;;;4986515;28;20422;-75
2022/12/13 13:22:57;;;;;;;17.65;7.88;;;;;;;;;;5023260;28;20472;-75
2022/12/13 13:25:33;;;;;;;21.55;8.48;;;;;;;;;;5022918;28;20084;-76
2022/12/13 13:28:16;;;;;;;12.80;7.28;;;;;;;;;;5034991;28;20052;-75
2022/12/13 13:31:05;;;;;;;21.50;8.18;;;;;;;;;;5004506;28;20035;-76
2022/12/13 13:33:47;;;;;;;16.70;8.90;;;;;;;;;;5014790;28;20046;-75
2022/12/13 13:36:37;;;;;;;19.60;9.13;;;;;;;;;;5008794;28;20033;-75
2022/12/13 13:39:03;;;;;;;16.00;9.00;;;;;;;;;;4999387;28;20441;-75
2022/12/13 13:41:56;;;;;;;20.38;9.43;;;;;;;;;;5023952;28;20057;-75
2022/12/13 13:44:43;;;;;;;16.60;9.27;;;;;;;;;;5000912;28;20048;-75
2022/12/13 13:47:19;;;;;;;20.00;9.20;;;;;;;;;;5027245;28;20061;-75
2022/12/13 13:49:50;;;;;;;21.02;9.15;;;;;;;;;;5015177;28;20057;-75
2022/12/13 13:52:18;;;;;;;19.65;8.52;;;;;;;;;;5021788;28;20481;-75
2022/12/13 13:55:00;;;;;;;17.67;8.05;;;;;;;;;;5008573;28;20045;-75
2022/12/13 13:57:35;;;;;;;16.17;7.93;;;;;;;;;;5027554;28;20482;-75
2022/12/13 14:00:19;;;;;;;15.85;8.52;;;;;;;;;;5016127;28;20048;-75
2022/12/13 14:03:22;;;;;;;18.30;8.48;;;;;;;;;;4998405;28;20073;-75
2022/12/13 14:06:24;;;;;;;18.52;8.57;;;;;;;;;;5011233;28;20029;-75
2022/12/13 14:08:58;;;;;;;7.60;4.35;;;;;;;;;;5012037;28;20071;-75
2022/12/13 14:11:40;;;;;;;17.20;8.50;;;;;;;;;;5027886;28;20046;-75
2022/12/13 14:14:24;;;;;;;16.90;8.02;;;;;;;;;;5018367;28;20509;-75
2022/12/13 14:17:25;;;;;;;17.65;7.85;;;;;;;;;;5013270;28;20096;-75
2022/12/13 14:20:09;;;;;;;15.00;7.25;;;;;;;;;;5029792;28;20080;-76
2022/12/13 14:22:45;;;;;;;16.48;8.18;;;;;;;;;;5016255;28;20041;-75
2022/12/13 14:25:10;;;;;;;17.27;7.40;;;;;;;;;;5029349;28;20048;-75
2022/12/13 14:27:42;;;;;;;16.30;7.97;;;;;;;;;;5008403;28;20140;-75
2022/12/13 14:30:13;;;;;;;22.88;7.47;;;;;;;;;;5019051;28;20044;-75
2022/12/13 14:32:39;;;;;;;17.90;7.40;;;;;;;;;;5033052;28;20477;-75
2022/12/13 14:35:05;;;;;;;18.67;8.85;;;;;;;;;;5022185;28;20025;-75
2022/12/13 14:37:37;;;;;;;21.20;10.07;;;;;;;;;;5020000;28;20026;-75
2022/12/13 14:40:24;;;;;;;18.58;8.63;;;;;;;;;;5024177;28;20049;-75
2022/12/13 14:42:56;;;;;;;21.23;9.80;;;;;;;;;;5020098;28;20467;-75
2022/12/13 14:45:28;;;;;;;18.15;8.13;;;;;;;;;;5028967;28;20482;-75